createdAt,value
2023-02-09T00:00:08.025Z,17.42
2023-02-09T00:00:54.922Z,17.50
2023-02-09T00:01:41.923Z,16.33
2023-02-09T00:02:29.027Z,17.33
2023-02-09T00:03:16.065Z,18.12
2023-02-09T00:04:03.095Z,17.50
2023-02-09T00:04:50.013Z,17.27
2023-02-09T00:05:37.553Z,19.10
2023-02-09T00:06:25.082Z,16.70
2023-02-09T00:07:12.061Z,18.37
2023-02-09T00:07:58.986Z,17.00
2023-02-09T00:08:46.360Z,17.08
2023-02-09T00:09:33.515Z,18.37
2023-02-09T00:10:20.522Z,17.83
2023-02-09T00:11:14.564Z,15.95
2023-02-09T00:12:20.043Z,17.00
2023-02-09T00:13:25.292Z,16.27
2023-02-09T00:14:13.187Z,16.30
2023-02-09T00:15:00.170Z,17.05
2023-02-09T00:16:14.842Z,17.15
2023-02-09T00:17:02.617Z,15.02
2023-02-09T00:17:49.719Z,16.85
2023-02-09T00:18:36.923Z,16.12
2023-02-09T00:19:23.857Z,17.48
2023-02-09T00:20:11.184Z,16.90
2023-02-09T00:21:03.503Z,16.52
2023-02-09T00:21:50.390Z,16.77
2023-02-09T00:22:37.258Z,16.30
2023-02-09T00:23:24.880Z,16.77
2023-02-09T00:24:12.180Z,16.15
2023-02-09T00:24:59.369Z,17.30
2023-02-09T00:25:46.292Z,17.42
2023-02-09T00:26:33.448Z,17.27
2023-02-09T00:27:20.481Z,17.98
2023-02-09T00:28:07.469Z,17.85
2023-02-09T00:28:54.446Z,16.85
2023-02-09T00:29:41.367Z,18.40
2023-02-09T00:30:28.288Z,19.37
2023-02-09T00:31:15.268Z,18.12
2023-02-09T00:32:02.306Z,18.12
2023-02-09T00:32:49.257Z,18.83
2023-02-09T00:33:37.049Z,17.83
2023-02-09T00:34:23.863Z,17.15
2023-02-09T00:35:11.285Z,17.95
2023-02-09T00:35:58.306Z,18.75
2023-02-09T00:36:45.482Z,18.17
2023-02-09T00:37:32.403Z,18.77
2023-02-09T00:38:19.357Z,17.08
2023-02-09T00:39:06.323Z,17.83
2023-02-09T00:39:53.198Z,17.40
2023-02-09T00:40:40.814Z,19.60
2023-02-09T00:41:46.389Z,19.90
2023-02-09T00:42:33.311Z,17.85
2023-02-09T00:43:20.213Z,17.30
2023-02-09T00:44:07.075Z,16.75
2023-02-09T00:44:54.081Z,16.85
2023-02-09T00:45:41.001Z,18.37
2023-02-09T00:46:27.875Z,17.90
2023-02-09T00:47:14.827Z,17.83
2023-02-09T00:48:02.165Z,18.05
2023-02-09T00:48:49.660Z,17.67
2023-02-09T00:49:36.878Z,17.45
2023-02-09T00:50:24.078Z,18.15
2023-02-09T00:51:10.912Z,17.77
2023-02-09T00:51:58.016Z,17.87
2023-02-09T00:52:44.958Z,17.02
2023-02-09T00:53:31.850Z,17.65
2023-02-09T00:54:18.730Z,18.00
2023-02-09T00:55:06.256Z,18.60
2023-02-09T00:55:53.359Z,17.75
2023-02-09T00:56:40.171Z,17.52
2023-02-09T00:57:27.055Z,17.95
2023-02-09T00:58:13.955Z,16.80
2023-02-09T00:59:00.845Z,17.30
2023-02-09T00:59:47.668Z,17.05
2023-02-09T01:00:34.644Z,16.25
2023-02-09T01:01:21.634Z,16.50
2023-02-09T01:02:08.560Z,17.42
2023-02-09T01:02:58.306Z,17.90
2023-02-09T01:03:45.208Z,17.12
2023-02-09T01:04:32.567Z,17.58
2023-02-09T01:05:19.418Z,17.70
2023-02-09T01:06:06.724Z,16.48
2023-02-09T01:06:53.721Z,16.58
2023-02-09T01:07:40.550Z,16.58
2023-02-09T01:08:27.425Z,17.15
2023-02-09T01:09:14.379Z,18.15
2023-02-09T01:10:03.143Z,16.60
2023-02-09T01:10:49.985Z,16.12
2023-02-09T01:11:36.891Z,15.55
2023-02-09T01:12:23.795Z,16.17
2023-02-09T01:13:10.662Z,17.02
2023-02-09T01:13:59.020Z,16.23
2023-02-09T01:14:45.974Z,18.10
2023-02-09T01:15:32.956Z,16.55
2023-02-09T01:16:20.014Z,17.52
2023-02-09T01:17:07.126Z,16.67
2023-02-09T01:17:54.037Z,15.73
2023-02-09T01:18:41.728Z,15.98
2023-02-09T01:19:29.379Z,15.27
2023-02-09T01:20:16.976Z,16.50
2023-02-09T01:21:12.855Z,16.65
2023-02-09T01:21:59.904Z,15.40
2023-02-09T01:22:46.845Z,16.00
2023-02-09T01:23:33.721Z,16.23
2023-02-09T01:24:20.603Z,16.33
2023-02-09T01:25:08.278Z,17.40
2023-02-09T01:26:05.170Z,17.77
2023-02-09T01:26:52.177Z,16.02
2023-02-09T01:27:39.222Z,18.12
2023-02-09T01:28:26.170Z,16.15
2023-02-09T01:29:15.231Z,16.48
2023-02-09T01:30:02.127Z,16.80
2023-02-09T01:30:49.386Z,15.50
2023-02-09T01:31:36.505Z,16.25
2023-02-09T01:32:23.540Z,17.12
2023-02-09T01:33:10.461Z,16.52
2023-02-09T01:33:58.885Z,17.23
2023-02-09T01:34:45.767Z,18.73
2023-02-09T01:35:32.737Z,17.83
2023-02-09T01:36:20.242Z,17.85
2023-02-09T01:37:07.417Z,16.67
2023-02-09T01:37:54.391Z,17.27
2023-02-09T01:38:41.308Z,17.20
2023-02-09T01:39:28.301Z,17.85
2023-02-09T01:40:15.219Z,16.87
2023-02-09T01:41:02.121Z,17.77
2023-02-09T01:41:48.997Z,16.25
2023-02-09T01:42:35.929Z,17.45
2023-02-09T01:43:22.932Z,17.27
2023-02-09T01:44:12.428Z,16.20
2023-02-09T01:45:07.801Z,16.75
2023-02-09T01:45:55.529Z,16.48
2023-02-09T01:46:43.113Z,16.80
2023-02-09T01:47:30.024Z,16.77
2023-02-09T01:48:21.994Z,16.05
2023-02-09T01:49:15.941Z,16.62
2023-02-09T01:50:03.211Z,16.42
2023-02-09T01:50:51.821Z,16.10
2023-02-09T01:51:43.358Z,17.27
2023-02-09T01:52:30.671Z,16.77
2023-02-09T01:53:18.790Z,16.45
2023-02-09T01:54:08.980Z,17.00
2023-02-09T01:55:00.393Z,16.20
2023-02-09T01:55:58.768Z,16.45
2023-02-09T01:56:50.099Z,17.05
2023-02-09T01:57:46.014Z,15.88
2023-02-09T01:58:33.262Z,16.42
2023-02-09T01:59:20.384Z,18.35
2023-02-09T02:00:26.721Z,18.20
2023-02-09T02:01:13.924Z,17.87
2023-02-09T02:02:01.420Z,17.12
2023-02-09T02:02:52.328Z,18.30
2023-02-09T02:03:39.440Z,16.48
2023-02-09T02:04:26.452Z,17.77
2023-02-09T02:05:13.488Z,18.02
2023-02-09T02:06:06.926Z,16.87
2023-02-09T02:06:55.846Z,17.67
2023-02-09T02:07:51.776Z,16.95
2023-02-09T02:08:45.970Z,15.70
2023-02-09T02:09:33.047Z,17.62
2023-02-09T02:10:20.126Z,17.23
2023-02-09T02:11:08.074Z,18.12
2023-02-09T02:11:55.231Z,17.17
2023-02-09T02:12:42.271Z,17.65
2023-02-09T02:13:29.115Z,18.08
2023-02-09T02:14:39.577Z,16.95
2023-02-09T02:15:30.785Z,16.52
2023-02-09T02:16:39.263Z,18.48
2023-02-09T02:17:34.847Z,16.02
2023-02-09T02:18:25.396Z,16.08
2023-02-09T02:20:23.169Z,15.68
2023-02-09T02:21:25.498Z,16.17
2023-02-09T02:22:27.578Z,16.00
2023-02-09T02:23:16.159Z,16.30
2023-02-09T02:24:03.030Z,15.02
2023-02-09T02:25:15.177Z,15.68
2023-02-09T02:26:02.006Z,15.95
2023-02-09T02:27:27.173Z,16.52
2023-02-09T02:28:51.964Z,15.57
2023-02-09T02:30:03.356Z,15.25
2023-02-09T02:31:28.901Z,15.27
2023-02-09T02:32:39.269Z,15.77
2023-02-09T02:33:51.104Z,15.45
2023-02-09T02:34:40.599Z,15.68
2023-02-09T02:35:33.543Z,16.30
2023-02-09T02:36:38.936Z,16.08
2023-02-09T02:37:40.184Z,15.85
2023-02-09T02:38:39.675Z,16.20
2023-02-09T02:39:32.899Z,16.10
2023-02-09T02:40:24.597Z,16.80
2023-02-09T02:41:18.327Z,16.92
2023-02-09T02:42:35.227Z,17.30
2023-02-09T02:43:42.568Z,15.30
2023-02-09T02:44:30.739Z,15.52
2023-02-09T02:45:36.950Z,17.05
2023-02-09T02:46:27.869Z,15.98
2023-02-09T02:47:16.385Z,16.95
2023-02-09T02:48:06.275Z,15.75
2023-02-09T02:49:22.430Z,17.30
2023-02-09T02:50:14.522Z,16.20
2023-02-09T02:51:12.381Z,17.52
2023-02-09T02:52:03.152Z,15.95
2023-02-09T02:52:52.221Z,16.77
2023-02-09T02:53:42.122Z,15.68
2023-02-09T02:54:32.898Z,17.00
2023-02-09T02:55:21.484Z,15.32
2023-02-09T02:56:15.872Z,17.87
2023-02-09T02:57:06.028Z,17.12
2023-02-09T02:57:54.896Z,17.60
2023-02-09T02:58:42.802Z,17.17
2023-02-09T02:59:35.705Z,15.82
2023-02-09T03:00:28.981Z,17.33
2023-02-09T03:01:19.324Z,16.40
2023-02-09T03:02:13.106Z,17.60
2023-02-09T03:03:04.825Z,17.08
2023-02-09T03:03:52.665Z,17.42
2023-02-09T03:04:40.413Z,17.77
2023-02-09T03:05:28.337Z,16.45
2023-02-09T03:06:15.738Z,16.90
2023-02-09T03:07:05.875Z,18.02
2023-02-09T03:07:52.795Z,16.73
2023-02-09T03:08:51.694Z,16.17
2023-02-09T03:09:48.825Z,17.08
2023-02-09T03:10:38.923Z,16.35
2023-02-09T03:11:40.340Z,13.80
2023-02-09T03:12:42.074Z,16.20
2023-02-09T03:13:39.248Z,15.95
2023-02-09T03:14:35.580Z,16.70
2023-02-09T03:15:53.646Z,16.92
2023-02-09T03:16:45.977Z,16.70
2023-02-09T03:18:05.160Z,15.85
2023-02-09T03:19:18.846Z,15.35
2023-02-09T03:20:17.614Z,16.17
2023-02-09T03:21:34.696Z,15.82
2023-02-09T03:22:35.026Z,15.55
2023-02-09T03:23:41.093Z,15.80
2023-02-09T03:24:30.273Z,15.18
2023-02-09T03:25:28.107Z,16.52
2023-02-09T03:26:20.909Z,15.45
2023-02-09T03:27:15.229Z,15.50
2023-02-09T03:28:09.051Z,16.08
2023-02-09T03:28:57.064Z,16.33
2023-02-09T03:29:46.622Z,16.90
2023-02-09T03:30:34.683Z,16.87
2023-02-09T03:31:23.155Z,15.75
2023-02-09T03:32:10.355Z,15.77
2023-02-09T03:32:57.371Z,15.75
2023-02-09T03:33:44.712Z,16.42
2023-02-09T03:34:32.050Z,16.60
2023-02-09T03:35:19.852Z,17.37
2023-02-09T03:36:14.285Z,16.45
2023-02-09T03:37:01.251Z,16.17
2023-02-09T03:37:48.120Z,16.12
2023-02-09T03:38:35.108Z,15.68
2023-02-09T03:39:22.404Z,17.35
2023-02-09T03:40:09.981Z,15.70
2023-02-09T03:40:56.908Z,16.52
2023-02-09T03:41:43.757Z,16.48
2023-02-09T03:42:30.615Z,17.65
2023-02-09T03:43:17.649Z,17.75
2023-02-09T03:44:23.260Z,17.52
2023-02-09T03:45:10.105Z,16.42
2023-02-09T03:45:56.991Z,16.65
2023-02-09T03:46:43.994Z,16.92
2023-02-09T03:47:31.040Z,16.45
2023-02-09T03:48:17.903Z,16.35
2023-02-09T03:49:04.801Z,17.25
2023-02-09T03:49:51.681Z,16.37
2023-02-09T03:50:38.896Z,16.95
2023-02-09T03:51:25.799Z,16.58
2023-02-09T03:52:14.338Z,16.52
2023-02-09T03:53:03.474Z,15.98
2023-02-09T03:53:51.236Z,16.02
2023-02-09T03:54:38.557Z,17.95
2023-02-09T03:55:25.644Z,16.00
2023-02-09T03:56:12.517Z,16.15
2023-02-09T03:57:00.324Z,16.58
2023-02-09T03:57:47.138Z,16.45
2023-02-09T03:58:37.272Z,16.15
2023-02-09T03:59:27.649Z,13.38
2023-02-09T04:00:15.014Z,17.02
2023-02-09T04:01:06.144Z,15.90
2023-02-09T04:01:54.281Z,16.67
2023-02-09T04:02:41.176Z,15.95
2023-02-09T04:03:28.087Z,17.12
2023-02-09T04:04:14.998Z,16.52
2023-02-09T04:05:02.503Z,15.40
2023-02-09T04:05:50.513Z,17.40
2023-02-09T04:06:37.664Z,17.52
2023-02-09T04:07:24.572Z,17.75
2023-02-09T04:08:11.470Z,17.12
2023-02-09T04:08:59.567Z,18.05
2023-02-09T04:09:46.448Z,17.50
2023-02-09T04:10:33.378Z,16.90
2023-02-09T04:11:21.689Z,16.15
2023-02-09T04:12:10.037Z,15.65
2023-02-09T04:12:56.854Z,15.50
2023-02-09T04:13:43.714Z,16.23
2023-02-09T04:14:30.604Z,16.70
2023-02-09T04:15:17.524Z,16.05
2023-02-09T04:16:04.654Z,16.62
2023-02-09T04:16:51.519Z,16.08
2023-02-09T04:17:38.365Z,16.25
2023-02-09T04:18:25.291Z,15.60
2023-02-09T04:19:12.627Z,16.62
2023-02-09T04:19:59.468Z,16.35
2023-02-09T04:20:46.902Z,15.75
2023-02-09T04:21:33.875Z,16.65
2023-02-09T04:22:20.750Z,15.18
2023-02-09T04:23:07.658Z,15.90
2023-02-09T04:23:54.538Z,16.35
2023-02-09T04:24:41.375Z,16.90
2023-02-09T04:25:28.300Z,15.18
2023-02-09T04:26:15.821Z,16.58
2023-02-09T04:27:02.753Z,15.68
2023-02-09T04:27:49.746Z,16.30
2023-02-09T04:28:36.840Z,15.85
2023-02-09T04:29:23.808Z,16.42
2023-02-09T04:30:11.274Z,16.05
2023-02-09T04:30:58.291Z,15.75
2023-02-09T04:31:45.222Z,16.85
2023-02-09T04:32:32.114Z,15.23
2023-02-09T04:33:18.938Z,15.38
2023-02-09T04:34:05.808Z,14.87
2023-02-09T04:34:52.616Z,15.32
2023-02-09T04:35:39.460Z,16.65
2023-02-09T04:36:26.301Z,15.35
2023-02-09T04:37:13.250Z,15.18
2023-02-09T04:38:00.060Z,15.80
2023-02-09T04:38:46.908Z,15.13
2023-02-09T04:39:33.732Z,15.90
2023-02-09T04:40:20.702Z,16.10
2023-02-09T04:41:07.732Z,15.75
2023-02-09T04:41:54.637Z,16.20
2023-02-09T04:42:44.216Z,15.43
2023-02-09T04:43:31.566Z,15.02
2023-02-09T04:44:18.505Z,15.48
2023-02-09T04:45:06.111Z,14.75
2023-02-09T04:45:53.158Z,16.05
2023-02-09T04:46:40.165Z,16.02
2023-02-09T04:47:27.130Z,15.77
2023-02-09T04:48:15.975Z,13.98
2023-02-09T04:49:03.082Z,16.55
2023-02-09T04:49:50.082Z,16.27
2023-02-09T04:50:36.993Z,15.02
2023-02-09T04:51:23.951Z,14.87
2023-02-09T04:52:10.894Z,15.82
2023-02-09T04:52:57.786Z,15.13
2023-02-09T04:53:44.620Z,15.15
2023-02-09T04:54:31.447Z,17.85
2023-02-09T04:55:18.270Z,15.85
2023-02-09T04:56:05.820Z,16.55
2023-02-09T04:57:12.610Z,15.60
2023-02-09T04:58:17.848Z,14.05
2023-02-09T04:59:23.471Z,14.70
2023-02-09T05:00:11.099Z,15.05
2023-02-09T05:00:58.503Z,14.27
2023-02-09T05:01:45.432Z,15.88
2023-02-09T05:02:32.316Z,15.30
2023-02-09T05:03:19.248Z,15.45
2023-02-09T05:04:06.203Z,15.52
2023-02-09T05:04:53.083Z,15.05
2023-02-09T05:05:41.378Z,14.90
2023-02-09T05:06:29.239Z,15.52
2023-02-09T05:07:16.083Z,14.77
2023-02-09T05:08:02.989Z,15.07
2023-02-09T05:08:49.931Z,15.00
2023-02-09T05:09:36.741Z,15.48
2023-02-09T05:10:23.612Z,14.38
2023-02-09T05:11:10.772Z,15.02
2023-02-09T05:11:57.627Z,15.23
2023-02-09T05:12:44.501Z,15.65
2023-02-09T05:13:31.456Z,15.57
2023-02-09T05:14:18.331Z,15.38
2023-02-09T05:15:05.474Z,15.80
2023-02-09T05:15:52.881Z,15.48
2023-02-09T05:16:39.769Z,14.90
2023-02-09T05:17:26.720Z,14.82
2023-02-09T05:18:14.262Z,15.00
2023-02-09T05:19:01.139Z,16.20
2023-02-09T05:19:48.717Z,15.93
2023-02-09T05:20:36.617Z,15.90
2023-02-09T05:21:23.517Z,14.35
2023-02-09T05:22:10.417Z,16.92
2023-02-09T05:22:57.333Z,15.93
2023-02-09T05:23:44.257Z,15.45
2023-02-09T05:24:31.173Z,14.90
2023-02-09T05:25:18.141Z,15.77
2023-02-09T05:26:05.110Z,15.00
2023-02-09T05:26:51.965Z,16.02
2023-02-09T05:27:38.967Z,15.38
2023-02-09T05:28:26.450Z,14.73
2023-02-09T05:29:13.362Z,14.73
2023-02-09T05:30:00.541Z,15.05
2023-02-09T05:30:53.845Z,15.32
2023-02-09T05:31:40.963Z,15.35
2023-02-09T05:32:27.958Z,15.38
2023-02-09T05:33:14.788Z,14.80
2023-02-09T05:34:01.666Z,16.05
2023-02-09T05:34:48.559Z,15.38
2023-02-09T05:35:35.685Z,15.90
2023-02-09T05:36:22.569Z,15.18
2023-02-09T05:37:09.512Z,15.63
2023-02-09T05:37:56.393Z,15.88
2023-02-09T05:38:43.295Z,16.48
2023-02-09T05:39:30.335Z,14.70
2023-02-09T05:40:17.402Z,15.40
2023-02-09T05:41:08.726Z,15.45
2023-02-09T05:42:14.201Z,15.85
2023-02-09T05:43:02.640Z,14.10
2023-02-09T05:43:49.619Z,14.85
2023-02-09T05:44:36.577Z,15.50
2023-02-09T05:45:23.702Z,15.57
2023-02-09T05:46:10.689Z,15.95
2023-02-09T05:46:57.547Z,16.80
2023-02-09T05:47:44.426Z,15.30
2023-02-09T05:48:31.451Z,16.00
2023-02-09T05:49:18.295Z,15.02
2023-02-09T05:50:05.529Z,15.55
2023-02-09T05:50:52.368Z,15.85
2023-02-09T05:51:39.272Z,16.95
2023-02-09T05:52:26.190Z,16.85
2023-02-09T05:53:15.150Z,15.88
2023-02-09T05:54:02.302Z,15.63
2023-02-09T05:54:49.242Z,15.20
2023-02-09T05:55:36.245Z,15.75
2023-02-09T05:56:23.091Z,15.23
2023-02-09T05:57:10.478Z,16.02
2023-02-09T05:57:57.355Z,15.70
2023-02-09T05:58:44.369Z,15.70
2023-02-09T05:59:31.587Z,14.13
2023-02-09T06:00:18.854Z,15.73
2023-02-09T06:01:06.093Z,17.15
2023-02-09T06:01:53.164Z,14.93
2023-02-09T06:02:40.472Z,16.15
2023-02-09T06:03:27.400Z,15.75
2023-02-09T06:04:14.252Z,15.25
2023-02-09T06:05:01.100Z,15.00
2023-02-09T06:05:47.944Z,15.93
2023-02-09T06:06:35.026Z,15.02
2023-02-09T06:07:22.079Z,15.65
2023-02-09T06:08:08.965Z,14.77
2023-02-09T06:08:55.799Z,14.93
2023-02-09T06:09:42.700Z,15.55
2023-02-09T06:10:29.632Z,15.70
2023-02-09T06:11:16.672Z,15.15
2023-02-09T06:12:03.699Z,15.27
2023-02-09T06:12:50.720Z,14.45
2023-02-09T06:13:37.549Z,15.30
2023-02-09T06:14:24.713Z,16.25
2023-02-09T06:15:11.802Z,15.55
2023-02-09T06:15:58.762Z,15.40
2023-02-09T06:16:45.980Z,15.43
2023-02-09T06:17:32.797Z,15.05
2023-02-09T06:18:19.639Z,14.73
2023-02-09T06:19:07.679Z,15.80
2023-02-09T06:19:54.589Z,15.27
2023-02-09T06:20:41.458Z,16.70
2023-02-09T06:21:28.420Z,15.48
2023-02-09T06:22:17.338Z,15.80
2023-02-09T06:23:04.286Z,15.60
2023-02-09T06:23:51.285Z,14.80
2023-02-09T06:24:38.156Z,14.80
2023-02-09T06:25:25.001Z,14.52
2023-02-09T06:26:13.938Z,15.13
2023-02-09T06:27:00.768Z,14.87
2023-02-09T06:27:47.623Z,15.25
2023-02-09T06:28:34.520Z,15.00
2023-02-09T06:29:21.389Z,15.73
2023-02-09T06:30:08.964Z,15.07
2023-02-09T06:30:55.997Z,15.80
2023-02-09T06:31:43.000Z,15.52
2023-02-09T06:32:29.847Z,14.27
2023-02-09T06:33:17.248Z,14.38
2023-02-09T06:34:05.951Z,15.88
2023-02-09T06:34:53.006Z,14.65
2023-02-09T06:35:39.897Z,14.75
2023-02-09T06:36:26.795Z,14.15
2023-02-09T06:37:13.702Z,14.95
2023-02-09T06:38:00.562Z,13.55
2023-02-09T06:38:47.503Z,15.25
2023-02-09T06:39:34.383Z,16.52
2023-02-09T06:40:21.316Z,15.10
2023-02-09T06:41:08.172Z,14.35
2023-02-09T06:41:55.318Z,15.77
2023-02-09T06:42:45.041Z,15.05
2023-02-09T06:43:32.316Z,12.35
2023-02-09T06:44:19.829Z,15.73
2023-02-09T06:45:07.104Z,14.68
2023-02-09T06:45:54.395Z,14.65
2023-02-09T06:46:41.229Z,13.20
2023-02-09T06:47:28.520Z,13.93
2023-02-09T06:48:15.439Z,14.75
2023-02-09T06:49:02.553Z,15.45
2023-02-09T06:49:49.519Z,14.07
2023-02-09T06:50:38.132Z,14.00
2023-02-09T06:51:25.344Z,14.38
2023-02-09T06:52:12.398Z,14.48
2023-02-09T06:52:59.268Z,14.02
2023-02-09T06:53:46.174Z,15.52
2023-02-09T06:54:33.066Z,15.13
2023-02-09T06:55:20.147Z,14.95
2023-02-09T06:56:08.006Z,14.13
2023-02-09T06:56:55.439Z,13.98
2023-02-09T06:57:42.442Z,14.20
2023-02-09T06:58:29.487Z,14.52
2023-02-09T06:59:16.404Z,15.60
2023-02-09T07:00:05.372Z,14.45
2023-02-09T07:00:52.193Z,14.57
2023-02-09T07:01:39.225Z,14.95
2023-02-09T07:02:26.270Z,16.17
2023-02-09T07:03:13.132Z,16.00
2023-02-09T07:04:00.137Z,15.75
2023-02-09T07:04:47.186Z,15.30
2023-02-09T07:05:34.216Z,15.63
2023-02-09T07:06:21.747Z,15.27
2023-02-09T07:07:08.924Z,15.57
2023-02-09T07:07:56.790Z,15.25
2023-02-09T07:08:44.299Z,14.48
2023-02-09T07:09:31.530Z,14.70
2023-02-09T07:10:19.072Z,16.55
2023-02-09T07:11:08.145Z,15.70
2023-02-09T07:11:55.616Z,15.35
2023-02-09T07:12:43.973Z,15.07
2023-02-09T07:13:33.142Z,14.93
2023-02-09T07:14:20.043Z,14.93
2023-02-09T07:15:08.388Z,13.90
2023-02-09T07:15:57.273Z,15.00
2023-02-09T07:16:44.264Z,15.55
2023-02-09T07:17:31.881Z,14.70
2023-02-09T07:18:18.698Z,14.80
2023-02-09T07:19:05.557Z,15.73
2023-02-09T07:19:52.513Z,15.35
2023-02-09T07:20:39.422Z,15.02
2023-02-09T07:21:26.435Z,15.02
2023-02-09T07:22:13.290Z,15.10
2023-02-09T07:23:01.695Z,15.63
2023-02-09T07:23:49.104Z,16.80
2023-02-09T07:24:36.109Z,15.15
2023-02-09T07:25:22.954Z,15.73
2023-02-09T07:26:13.734Z,15.00
2023-02-09T07:27:01.051Z,16.02
2023-02-09T07:27:47.934Z,14.85
2023-02-09T07:28:35.975Z,14.93
2023-02-09T07:29:22.940Z,16.35
2023-02-09T07:30:10.956Z,15.52
2023-02-09T07:31:02.413Z,14.32
2023-02-09T07:31:49.620Z,16.08
2023-02-09T07:32:38.605Z,15.32
2023-02-09T07:33:25.486Z,15.63
2023-02-09T07:34:12.480Z,15.38
2023-02-09T07:34:59.337Z,15.27
2023-02-09T07:35:47.593Z,16.02
2023-02-09T07:36:34.490Z,14.82
2023-02-09T07:37:21.497Z,15.27
2023-02-09T07:38:09.028Z,14.93
2023-02-09T07:38:56.248Z,17.02
2023-02-09T07:39:43.270Z,14.80
2023-02-09T07:40:30.253Z,14.60
2023-02-09T07:41:22.141Z,16.10
2023-02-09T07:42:09.005Z,14.52
2023-02-09T07:42:55.871Z,15.05
2023-02-09T07:43:42.977Z,16.35
2023-02-09T07:44:30.072Z,16.85
2023-02-09T07:45:17.341Z,16.37
2023-02-09T07:46:08.765Z,15.40
2023-02-09T07:46:55.647Z,15.60
2023-02-09T07:47:42.547Z,15.68
2023-02-09T07:48:30.061Z,16.77
2023-02-09T07:49:17.557Z,16.10
2023-02-09T07:50:05.187Z,15.88
2023-02-09T07:50:52.434Z,15.38
2023-02-09T07:51:39.552Z,15.23
2023-02-09T07:52:26.498Z,14.73
2023-02-09T07:53:13.584Z,15.52
2023-02-09T07:54:00.764Z,15.35
2023-02-09T07:54:50.740Z,17.42
2023-02-09T07:55:40.555Z,15.15
2023-02-09T07:56:27.995Z,15.30
2023-02-09T07:57:15.064Z,15.75
2023-02-09T07:58:01.962Z,15.63
2023-02-09T07:58:49.061Z,16.65
2023-02-09T07:59:35.905Z,15.80
2023-02-09T08:00:22.981Z,15.80
2023-02-09T08:01:15.792Z,16.17
2023-02-09T08:02:02.702Z,15.43
2023-02-09T08:02:50.312Z,16.05
2023-02-09T08:03:37.958Z,17.95
2023-02-09T08:04:25.150Z,15.27
2023-02-09T08:05:18.607Z,15.85
2023-02-09T08:06:41.514Z,14.85
2023-02-09T08:07:29.208Z,15.57
2023-02-09T08:08:16.433Z,14.90
2023-02-09T08:09:06.439Z,19.83
2023-02-09T08:09:53.590Z,19.83
2023-02-09T08:10:41.674Z,20.37
2023-02-09T08:11:39.227Z,20.70
2023-02-09T08:12:47.371Z,20.50
2023-02-09T08:13:37.306Z,20.45
2023-02-09T08:14:27.290Z,23.17
2023-02-09T08:15:18.413Z,24.05
2023-02-09T08:16:09.641Z,22.62
2023-02-09T08:17:19.576Z,22.95
2023-02-09T08:18:18.002Z,21.23
2023-02-09T08:19:17.478Z,24.17
2023-02-09T08:20:07.505Z,24.27
2023-02-09T08:20:54.545Z,26.15
2023-02-09T08:21:43.676Z,26.50
2023-02-09T08:22:33.810Z,24.20
2023-02-09T08:23:33.045Z,24.92
2023-02-09T08:24:21.077Z,23.20
2023-02-09T08:25:08.677Z,22.83
2023-02-09T08:25:56.594Z,23.98
2023-02-09T08:26:43.769Z,23.95
2023-02-09T08:27:30.842Z,24.90
2023-02-09T08:28:19.857Z,23.30
2023-02-09T08:29:11.759Z,24.87
2023-02-09T08:29:59.802Z,24.67
2023-02-09T08:30:47.876Z,24.85
2023-02-09T08:31:34.878Z,23.65
2023-02-09T08:32:22.573Z,26.00
2023-02-09T08:33:09.500Z,25.20
2023-02-09T08:33:56.663Z,24.87
2023-02-09T08:34:44.623Z,24.20
2023-02-09T08:35:31.820Z,22.35
2023-02-09T08:36:20.587Z,23.83
2023-02-09T08:37:08.343Z,23.67
2023-02-09T08:37:55.358Z,25.12
2023-02-09T08:38:42.433Z,25.42
2023-02-09T08:39:29.240Z,24.60
2023-02-09T08:40:16.303Z,25.65
2023-02-09T08:41:05.040Z,25.95
2023-02-09T08:41:51.871Z,26.15
2023-02-09T08:42:38.731Z,24.80
2023-02-09T08:43:25.600Z,26.17
2023-02-09T08:44:12.423Z,24.90
2023-02-09T08:44:59.241Z,23.70
2023-02-09T08:45:46.488Z,24.83
2023-02-09T08:46:35.302Z,23.92
2023-02-09T08:47:23.017Z,23.85
2023-02-09T08:48:10.480Z,20.83
2023-02-09T08:48:57.407Z,22.52
2023-02-09T08:49:44.295Z,20.02
2023-02-09T08:50:31.156Z,21.58
2023-02-09T08:51:18.483Z,18.92
2023-02-09T08:52:05.722Z,18.25
2023-02-09T08:52:52.535Z,19.15
2023-02-09T08:53:39.528Z,17.58
2023-02-09T08:54:27.157Z,19.83
2023-02-09T08:55:14.562Z,18.30
2023-02-09T08:56:01.485Z,17.33
2023-02-09T08:56:48.318Z,17.85
2023-02-09T08:57:44.001Z,19.45
2023-02-09T08:58:33.525Z,19.30
2023-02-09T08:59:20.389Z,19.83
2023-02-09T09:00:07.644Z,18.08
2023-02-09T09:00:57.716Z,18.70
2023-02-09T09:01:44.624Z,19.02
2023-02-09T09:02:31.478Z,18.37
2023-02-09T09:03:18.436Z,18.87
2023-02-09T09:04:05.311Z,18.25
2023-02-09T09:04:52.276Z,18.23
2023-02-09T09:05:39.159Z,19.62
2023-02-09T09:06:27.233Z,18.90
2023-02-09T09:07:14.412Z,18.05
2023-02-09T09:08:01.726Z,19.58
2023-02-09T09:08:48.619Z,19.58
2023-02-09T09:09:35.525Z,18.98
2023-02-09T09:10:22.542Z,19.10
2023-02-09T09:11:13.238Z,20.35
2023-02-09T09:12:00.171Z,20.52
2023-02-09T09:12:47.046Z,21.75
2023-02-09T09:13:34.115Z,21.33
2023-02-09T09:14:20.931Z,23.05
2023-02-09T09:15:08.078Z,23.15
2023-02-09T09:15:56.075Z,24.35
2023-02-09T09:16:42.939Z,23.50
2023-02-09T09:17:30.348Z,24.10
2023-02-09T09:18:17.563Z,24.08
2023-02-09T09:19:05.069Z,25.12
2023-02-09T09:19:56.509Z,26.12
2023-02-09T09:20:43.453Z,26.27
2023-02-09T09:21:30.869Z,26.23
2023-02-09T09:22:17.702Z,27.37
2023-02-09T09:23:04.616Z,23.92
2023-02-09T09:23:51.439Z,23.55
2023-02-09T09:24:40.896Z,25.30
2023-02-09T09:25:27.989Z,26.55
2023-02-09T09:26:16.325Z,26.15
2023-02-09T09:27:05.235Z,26.92
2023-02-09T09:27:52.113Z,26.20
2023-02-09T09:28:39.022Z,28.08
2023-02-09T09:29:25.924Z,25.48
2023-02-09T09:30:13.275Z,27.73
2023-02-09T09:31:06.055Z,26.83
2023-02-09T09:31:53.049Z,27.35
2023-02-09T09:32:40.067Z,27.23
2023-02-09T09:33:27.156Z,26.95
2023-02-09T09:34:14.026Z,26.83
2023-02-09T09:35:02.442Z,26.33
2023-02-09T09:35:49.267Z,25.98
2023-02-09T09:36:36.050Z,27.20
2023-02-09T09:37:23.447Z,27.52
2023-02-09T09:38:10.314Z,28.35
2023-02-09T09:38:57.106Z,27.67
2023-02-09T09:39:44.596Z,27.85
2023-02-09T09:40:34.512Z,27.77
2023-02-09T09:41:32.965Z,27.42
2023-02-09T09:42:24.895Z,24.95
2023-02-09T09:43:36.955Z,24.63
2023-02-09T09:44:42.726Z,22.00
2023-02-09T09:45:30.933Z,25.75
2023-02-09T09:46:21.457Z,25.08
2023-02-09T09:47:56.479Z,23.42
2023-02-09T09:48:46.267Z,24.15
2023-02-09T09:49:33.797Z,26.67
2023-02-09T09:50:26.319Z,25.45
2023-02-09T09:51:34.395Z,24.12
2023-02-09T09:52:52.533Z,22.65
2023-02-09T09:53:40.267Z,20.45
2023-02-09T09:54:30.814Z,20.30
2023-02-09T09:55:32.176Z,21.40
2023-02-09T09:56:20.201Z,20.62
2023-02-09T09:57:20.751Z,21.35
2023-02-09T09:58:07.759Z,23.35
2023-02-09T09:58:54.775Z,22.65
2023-02-09T09:59:41.888Z,22.48
2023-02-09T10:00:32.647Z,23.10
2023-02-09T10:01:21.439Z,24.08
2023-02-09T10:02:39.462Z,25.52
2023-02-09T10:03:26.628Z,25.30
2023-02-09T10:04:15.458Z,25.30
2023-02-09T10:05:17.386Z,25.65
2023-02-09T10:06:20.023Z,26.35
2023-02-09T10:07:19.118Z,24.33
2023-02-09T10:08:29.865Z,22.92
2023-02-09T10:09:21.617Z,21.73
2023-02-09T10:10:26.444Z,21.92
2023-02-09T10:11:15.182Z,22.23
2023-02-09T10:12:15.136Z,20.42
2023-02-09T10:13:03.974Z,20.35
2023-02-09T10:13:52.100Z,20.58
2023-02-09T10:14:38.988Z,22.42
2023-02-09T10:15:36.123Z,21.50
2023-02-09T10:16:26.930Z,21.85
2023-02-09T10:17:13.816Z,21.77
2023-02-09T10:18:00.880Z,21.65
2023-02-09T10:18:57.267Z,23.77
2023-02-09T10:20:05.459Z,21.90
2023-02-09T10:21:02.075Z,20.10
2023-02-09T10:21:49.378Z,21.60
2023-02-09T10:22:36.253Z,19.92
2023-02-09T10:23:28.611Z,19.65
2023-02-09T10:24:29.578Z,20.15
2023-02-09T10:25:56.482Z,20.85
2023-02-09T10:26:43.526Z,19.98
2023-02-09T10:27:31.515Z,19.55
2023-02-09T10:28:26.794Z,20.80
2023-02-09T10:29:13.642Z,21.73
2023-02-09T10:30:23.110Z,22.70
2023-02-09T10:31:29.607Z,20.83
2023-02-09T10:32:20.571Z,18.02
2023-02-09T10:33:14.770Z,18.42
2023-02-09T10:34:12.645Z,17.92
2023-02-09T10:35:04.318Z,17.98
2023-02-09T10:36:01.161Z,18.35
2023-02-09T10:37:19.273Z,18.62
2023-02-09T10:38:12.274Z,17.52
2023-02-09T10:39:19.996Z,17.12
2023-02-09T10:40:13.802Z,17.65
2023-02-09T10:41:01.258Z,16.73
2023-02-09T10:41:53.307Z,18.05